sim
Sign-in with your pilot id or email,
or register
Callsign
Passwort

Schedule Details

Flight Number: DLH811 (3)
Departure: Gothenburg Landvetter Airport (ESGG) at 10:55
Arrival: Frankfurt Airport (EDDF) at 12:35
Route: Lufthansa Passenger Schedule. Enter filed route here before submitting Pirep.

Weather Information
Getting current METAR information for ESGG 200150Z 14009KT 9999 FEW024 BKN044 04/02 Q1015
Getting current METAR information for EDDF 200150Z 07003KT CAVOK 03/02 Q1016 NOSIG

Schedule Frequency

Route Map